Time;durP1;ratioP1;P1;durP2;ratioP2;P2;SDS_P1;SDS_P2;PMS_P1;PMS_P2;Temp;Humidity;BMP_temperature;BMP_pressure;BME280_temperature;BME280_humidity;BME280_pressure;Samples;Min_cycle;Max_cycle;Signal;HPM_P1;HPM_P2
2023/11/13 00:11:15;;;;;;;21.10;11.80;;;;;;;8.19;100.00;99567.70;671648;1264;139552;-79
2023/11/13 00:26:52;;;;;;;21.60;11.70;;;;;;;8.25;100.00;99573.10;680370;1262;139635;-79
2023/11/13 00:42:29;;;;;;;18.90;10.60;;;;;;;8.22;100.00;99580.14;680018;1261;139778;-79
2023/11/13 00:58:06;;;;;;;24.90;11.60;;;;;;;8.00;100.00;99585.41;677580;1262;139759;-79
2023/11/13 01:13:43;;;;;;;21.20;11.10;;;;;;;7.75;100.00;99595.74;679213;1260;140087;-80
2023/11/13 01:29:20;;;;;;;18.70;11.00;;;;;;;7.53;100.00;99596.61;674884;1260;139891;-79
2023/11/13 01:44:58;;;;;;;22.40;12.60;;;;;;;7.38;100.00;99598.73;675902;1263;139770;-80
2023/11/13 02:00:35;;;;;;;57.50;30.90;;;;;;;7.34;100.00;99598.52;672898;1274;139533;-80
2023/11/13 02:16:12;;;;;;;138.30;50.70;;;;;;;7.17;100.00;99603.42;673402;1263;139954;-80
2023/11/13 02:31:59;;;;;;;25.80;16.50;;;;;;;7.20;100.00;99608.63;676472;1271;139706;-80
2023/11/13 02:47:37;;;;;;;52.80;29.30;;;;;;;7.13;100.00;99615.98;678958;1268;139671;-79
2023/11/13 03:03:14;;;;;;;28.40;14.30;;;;;;;7.05;100.00;99615.25;677203;1264;138951;-77
2023/11/13 03:18:51;;;;;;;29.80;14.00;;;;;;;7.00;100.00;99621.56;675933;1263;138934;-80
2023/11/13 03:34:29;;;;;;;26.50;13.70;;;;;;;6.87;100.00;99630.70;673178;1262;139086;-78
2023/11/13 03:50:08;;;;;;;20.70;10.90;;;;;;;6.71;100.00;99616.71;671978;1260;139821;-77
2023/11/13 04:05:44;;;;;;;34.80;18.20;;;;;;;6.75;100.00;99620.48;673775;1271;139624;-78
2023/11/13 04:21:21;;;;;;;24.40;13.00;;;;;;;6.66;100.00;99623.37;677295;1263;139647;-78
2023/11/13 04:36:58;;;;;;;18.20;9.80;;;;;;;6.59;100.00;99623.54;674712;1273;139432;-79
2023/11/13 04:52:35;;;;;;;29.40;14.20;;;;;;;6.64;100.00;99615.67;676307;1260;139486;-79
2023/11/13 05:08:14;;;;;;;31.80;17.10;;;;;;;6.59;100.00;99621.65;680228;1263;139341;-80
2023/11/13 05:23:51;;;;;;;33.20;16.60;;;;;;;6.61;100.00;99629.84;678195;1260;140034;-79
2023/11/13 05:39:28;;;;;;;30.60;16.00;;;;;;;6.61;100.00;99629.81;680985;1261;140161;-79
2023/11/13 05:55:05;;;;;;;40.50;20.30;;;;;;;6.75;100.00;99634.02;678125;1258;139820;-79
2023/11/13 06:10:44;;;;;;;39.90;19.90;;;;;;;6.71;100.00;99647.39;680959;1263;140311;-79
2023/11/13 06:26:22;;;;;;;41.70;20.40;;;;;;;6.77;100.00;99656.52;678814;1269;140012;-79
2023/11/13 06:41:59;;;;;;;41.30;20.20;;;;;;;6.71;100.00;99663.38;680456;1260;139546;-78
2023/11/13 06:57:36;;;;;;;53.90;23.10;;;;;;;6.76;100.00;99675.50;673247;1260;140282;-79
2023/11/13 07:13:13;;;;;;;37.50;19.30;;;;;;;6.99;100.00;99683.34;677158;1262;140070;-79
2023/11/13 07:28:50;;;;;;;83.70;40.40;;;;;;;7.06;100.00;99698.74;674370;1263;140304;-79
2023/11/13 07:44:29;;;;;;;43.40;20.30;;;;;;;7.12;100.00;99695.52;682379;1260;139920;-79
2023/11/13 08:00:09;;;;;;;34.90;16.10;;;;;;;7.20;100.00;99709.30;680191;1259;140661;-79
2023/11/13 08:15:48;;;;;;;98.10;60.10;;;;;;;7.39;100.00;99724.63;677868;1260;139433;-79
2023/11/13 08:31:26;;;;;;;37.40;18.80;;;;;;;7.62;100.00;99732.45;674273;1262;140161;-78
2023/11/13 08:47:03;;;;;;;25.30;13.00;;;;;;;7.54;100.00;99744.58;672293;1257;10136545;-78
2023/11/13 09:02:42;;;;;;;21.50;11.80;;;;;;;7.73;100.00;99746.98;679081;1262;140365;-79
2023/11/13 09:18:23;;;;;;;36.30;18.80;;;;;;;8.23;100.00;99743.50;678228;1257;139326;-78
2023/11/13 09:33:59;;;;;;;34.70;16.00;;;;;;;9.15;99.67;99741.73;682516;1262;139630;-79
2023/11/13 09:49:51;;;;;;;19.20;9.20;;;;;;;10.44;95.86;99747.48;677049;1259;140052;-80
2023/11/13 10:05:30;;;;;;;29.50;14.10;;;;;;;9.86;94.00;99755.06;678124;1260;138735;-80
2023/11/13 10:21:07;;;;;;;22.00;12.20;;;;;;;9.74;92.47;99751.09;677989;1256;141921;-79
2023/11/13 10:36:38;;;;;;;18.90;10.10;;;;;;;10.84;90.38;99738.79;675029;1258;139835;-80
2023/11/13 10:52:09;;;;;;;29.30;19.60;;;;;;;11.71;83.72;99723.33;678345;1257;139866;-79
2023/11/13 11:07:46;;;;;;;44.00;23.00;;;;;;;10.65;85.30;99721.41;675716;1267;140486;-79
2023/11/13 11:23:27;;;;;;;62.10;27.10;;;;;;;10.42;87.14;99713.24;675566;1257;140797;-79
2023/11/13 11:39:25;;;;;;;27.40;15.80;;;;;;;10.37;87.62;99705.12;677172;1262;139646;-79
2023/11/13 11:55:16;;;;;;;23.40;12.90;;;;;;;10.63;86.36;99693.59;677765;1262;139945;-80
2023/11/13 12:10:53;;;;;;;22.10;13.10;;;;;;;10.48;86.98;99684.18;680552;1260;139899;-80
2023/11/13 12:26:39;;;;;;;24.20;13.60;;;;;;;10.37;86.61;99670.45;678174;1263;140858;-80
2023/11/13 12:42:16;;;;;;;22.60;12.40;;;;;;;10.22;86.82;99657.81;679854;1257;139977;-79
2023/11/13 12:57:56;;;;;;;40.60;19.30;;;;;;;10.11;85.61;99653.10;679298;1267;139552;-79
2023/11/13 13:13:36;;;;;;;37.10;20.20;;;;;;;9.94;87.13;99657.54;679123;1261;139958;-79
2023/11/13 13:29:23;;;;;;;38.80;19.60;;;;;;;9.71;88.80;99661.16;679829;1260;139752;-79
2023/11/13 13:45:00;;;;;;;92.40;43.40;;;;;;;9.94;89.04;99645.70;679702;1261;140863;-79
2023/11/13 14:08:44;;;;;;;53.40;27.00;;;;;;;9.37;93.72;99642.29;649326;1295;10136857;-80
2023/11/13 14:24:22;;;;;;;46.30;25.00;;;;;;;9.31;94.58;99630.05;670093;1273;138778;-79
2023/11/13 14:40:07;;;;;;;52.50;24.00;;;;;;;9.24;95.15;99625.16;673269;1270;138746;-79
2023/11/13 14:55:44;;;;;;;92.60;39.20;;;;;;;9.08;96.30;99627.48;667802;1273;138498;-79
2023/11/13 15:11:21;;;;;;;83.00;39.50;;;;;;;8.89;98.36;99617.71;673731;1270;139442;-79
2023/11/13 15:26:58;;;;;;;41.80;24.00;;;;;;;8.93;97.68;99601.63;671769;1272;138347;-80
2023/11/13 15:42:35;;;;;;;48.50;22.90;;;;;;;8.72;99.44;99606.01;673145;1275;138269;-78
2023/11/13 15:58:13;;;;;;;54.20;24.10;;;;;;;8.72;99.36;99595.55;671533;1270;138602;-79
2023/11/13 16:13:51;;;;;;;44.90;22.60;;;;;;;8.75;99.07;99589.35;678051;1263;138413;-79
2023/11/13 16:29:28;;;;;;;47.50;24.90;;;;;;;8.76;97.66;99575.83;678822;1262;138310;-80
2023/11/13 16:45:09;;;;;;;55.20;26.10;;;;;;;8.86;96.33;99569.17;679085;1264;140081;-79
2023/11/13 17:00:45;;;;;;;66.00;37.60;;;;;;;8.87;96.55;99564.90;675808;1260;138942;-80
2023/11/13 17:16:22;;;;;;;101.00;42.60;;;;;;;8.73;95.08;99543.10;678307;1262;139481;-80
2023/11/13 17:32:03;;;;;;;73.10;39.90;;;;;;;8.23;95.02;99531.09;677170;1261;139948;-80
2023/11/13 17:47:40;;;;;;;137.40;68.30;;;;;;;7.81;97.59;99512.38;680171;1262;139126;-80
2023/11/13 18:03:18;;;;;;;50.90;26.10;;;;;;;7.70;99.25;99490.45;676787;1260;138790;-80
2023/11/13 18:18:55;;;;;;;61.00;29.80;;;;;;;7.57;100.00;99464.17;677150;1262;139069;-81
2023/11/13 18:34:32;;;;;;;64.10;31.90;;;;;;;7.44;99.96;99432.75;674978;1263;139010;-79
2023/11/13 18:50:10;;;;;;;106.90;43.50;;;;;;;7.17;100.00;99404.84;677011;1273;139675;-80
2023/11/13 19:05:48;;;;;;;85.60;39.00;;;;;;;7.04;100.00;99386.83;672296;1262;139298;-81
2023/11/13 19:21:30;;;;;;;80.80;44.00;;;;;;;7.16;100.00;99368.27;679534;1262;139958;-80
2023/11/13 19:37:07;;;;;;;67.90;31.90;;;;;;;7.18;100.00;99335.54;681907;1260;139537;-80
2023/11/13 19:52:45;;;;;;;48.20;26.10;;;;;;;7.12;99.53;99307.91;676947;1258;138973;-80
2023/11/13 20:08:22;;;;;;;48.70;22.80;;;;;;;7.17;99.07;99305.38;679330;1269;138684;-80
2023/11/13 20:24:00;;;;;;;43.20;22.50;;;;;;;7.29;98.68;99310.72;678830;1263;138694;-80
2023/11/13 20:39:37;;;;;;;89.00;38.00;;;;;;;7.34;97.30;99277.58;677899;1273;138990;-79
2023/11/13 20:55:14;;;;;;;36.60;20.00;;;;;;;7.21;95.76;99225.88;679092;1260;139486;-80
2023/11/13 21:10:51;;;;;;;35.90;18.30;;;;;;;7.09;93.53;99212.35;679661;1260;139200;-80
2023/11/13 21:26:28;;;;;;;35.50;17.40;;;;;;;7.03;90.98;99172.80;681523;1260;138761;-80
2023/11/13 21:42:05;;;;;;;67.30;30.00;;;;;;;7.09;89.15;99124.41;681618;1262;138769;-80
2023/11/13 21:57:43;;;;;;;29.80;16.40;;;;;;;7.05;87.84;99074.70;681388;1262;140365;-80
2023/11/13 22:13:20;;;;;;;35.10;17.00;;;;;;;6.99;84.88;99084.29;680443;1262;139172;-79
2023/11/13 22:28:58;;;;;;;36.90;18.50;;;;;;;7.15;82.73;99059.55;677495;1261;139006;-79
2023/11/13 22:44:35;;;;;;;22.80;12.10;;;;;;;7.24;80.13;99035.95;681918;1264;138740;-79
2023/11/13 23:00:25;;;;;;;21.80;12.50;;;;;;;7.32;78.77;98983.70;679402;1259;138653;-79
2023/11/13 23:16:03;;;;;;;21.40;11.50;;;;;;;7.44;77.24;98987.58;676065;1261;138737;-79
2023/11/13 23:31:39;;;;;;;17.30;10.50;;;;;;;7.56;76.15;98939.52;677122;1263;138611;-79
2023/11/13 23:47:17;;;;;;;17.40;10.50;;;;;;;7.55;76.63;98841.96;675621;1260;138398;-81
